createdAt,value
2019-05-15T00:02:43.434Z,100596.14
2019-05-15T00:08:48.154Z,100595.80
2019-05-15T00:14:52.788Z,100595.63
2019-05-15T00:20:59.479Z,100586.37
2019-05-15T00:27:03.823Z,100586.75
2019-05-15T00:33:09.283Z,100587.33
2019-05-15T00:39:13.959Z,100582.86
2019-05-15T00:45:19.533Z,100574.97
2019-05-15T00:51:24.101Z,100579.67
2019-05-15T00:57:28.621Z,100569.64
2019-05-15T01:03:33.163Z,100560.02
2019-05-15T01:09:38.455Z,100557.94
2019-05-15T01:15:43.227Z,100557.95
2019-05-15T01:21:48.232Z,100549.36
2019-05-15T01:27:53.180Z,100541.29
2019-05-15T01:33:58.381Z,100538.08
2019-05-15T01:40:03.061Z,100544.81
2019-05-15T01:46:08.365Z,100547.35
2019-05-15T01:52:13.263Z,100532.77
2019-05-15T01:58:18.612Z,100528.55
2019-05-15T02:04:23.570Z,100521.23
2019-05-15T02:10:29.163Z,100520.53
2019-05-15T02:16:34.092Z,100519.20
2019-05-15T02:22:42.531Z,100519.07
2019-05-15T02:28:45.149Z,100516.08
2019-05-15T02:34:50.183Z,100513.67
2019-05-15T02:40:54.962Z,100517.64
2019-05-15T02:47:01.178Z,100512.92
2019-05-15T02:53:09.493Z,100511.24
2019-05-15T02:59:12.119Z,100514.02
2019-05-15T03:05:19.374Z,100511.61
2019-05-15T03:11:23.125Z,100515.23
2019-05-15T03:17:29.725Z,100519.39
2019-05-15T03:23:34.064Z,100516.03
2019-05-15T03:29:40.354Z,100518.36
2019-05-15T03:35:45.243Z,100521.35
2019-05-15T03:41:49.900Z,100518.84
2019-05-15T03:47:54.514Z,100524.63
2019-05-15T03:54:00.348Z,100523.30
2019-05-15T04:00:09.599Z,100523.91
2019-05-15T04:06:13.951Z,100523.04
2019-05-15T04:12:19.633Z,100524.73
2019-05-15T04:18:24.462Z,100526.55
2019-05-15T04:24:31.407Z,100529.28
2019-05-15T04:30:38.934Z,100536.73
2019-05-15T04:36:44.836Z,100541.26
2019-05-15T04:42:49.966Z,100541.91
2019-05-15T04:48:54.641Z,100533.13
2019-05-15T04:54:59.864Z,100533.32
2019-05-15T05:01:08.975Z,100531.80
2019-05-15T05:07:12.324Z,100545.45
2019-05-15T05:13:19.432Z,100549.31
2019-05-15T05:19:23.288Z,100551.68
2019-05-15T05:25:28.054Z,100551.19
2019-05-15T05:31:32.665Z,100548.95
2019-05-15T05:37:38.899Z,100555.70
2019-05-15T05:43:44.137Z,100559.13
2019-05-15T05:49:48.936Z,100555.13
2019-05-15T05:55:58.048Z,100556.00
2019-05-15T06:02:03.037Z,100553.97
2019-05-15T06:08:08.896Z,100557.36
2019-05-15T06:14:13.438Z,100554.44
2019-05-15T06:20:18.590Z,100550.47
2019-05-15T06:26:23.274Z,100550.16
2019-05-15T06:32:28.909Z,100546.37
2019-05-15T06:38:33.713Z,100544.53
2019-05-15T06:44:38.790Z,100548.17
2019-05-15T06:50:43.760Z,100545.73
2019-05-15T06:56:49.284Z,100538.41
2019-05-15T07:02:54.069Z,100533.25
2019-05-15T07:08:58.954Z,100533.68
2019-05-15T07:15:05.113Z,100529.03
2019-05-15T07:21:10.613Z,100520.60
2019-05-15T07:27:15.364Z,100519.55
2019-05-15T07:33:35.317Z,100510.88
2019-05-15T07:39:28.706Z,100506.70
2019-05-15T07:45:32.584Z,100505.63
2019-05-15T07:51:38.179Z,100493.42
2019-05-15T07:57:42.866Z,100497.02
2019-05-15T08:03:58.678Z,100490.94
2019-05-15T08:09:53.806Z,100485.94
2019-05-15T08:15:58.397Z,100476.20
2019-05-15T08:22:08.743Z,100470.53
2019-05-15T08:28:12.593Z,100461.70
2019-05-15T08:34:19.489Z,100455.52
2019-05-15T08:40:23.770Z,100448.31
2019-05-15T08:46:28.412Z,100454.47
2019-05-15T08:52:33.050Z,100448.39
2019-05-15T08:58:39.057Z,100441.88
2019-05-15T09:04:43.624Z,100454.30
2019-05-15T09:10:50.220Z,100432.58
2019-05-15T09:16:54.786Z,100438.06
2019-05-15T09:22:59.343Z,100427.23
2019-05-15T09:29:09.150Z,100430.75
2019-05-15T09:35:18.598Z,100419.83
2019-05-15T09:41:28.731Z,100418.89
2019-05-15T09:47:33.378Z,100421.38
2019-05-15T09:53:39.449Z,100406.64
2019-05-15T09:59:44.218Z,100397.88
2019-05-15T10:05:51.681Z,100403.47
2019-05-15T10:11:56.250Z,100395.70
2019-05-15T10:18:04.064Z,100381.28
2019-05-15T10:24:13.516Z,100376.41
2019-05-15T10:30:19.161Z,100365.27
2019-05-15T10:36:23.765Z,100355.11
2019-05-15T10:42:29.393Z,100351.16
2019-05-15T10:48:34.008Z,100339.98
2019-05-15T10:54:39.414Z,100332.43
2019-05-15T11:00:48.988Z,100333.26
2019-05-15T11:06:53.906Z,100327.78
2019-05-15T11:13:00.997Z,100337.43
2019-05-15T11:19:07.899Z,100314.05
2019-05-15T11:25:12.436Z,100309.59
2019-05-15T11:31:17.075Z,100308.30
2019-05-15T11:37:21.807Z,100293.96
2019-05-15T11:43:29.220Z,100316.05
2019-05-15T11:49:38.263Z,100312.24
2019-05-15T11:55:42.315Z,100307.45
2019-05-15T12:01:48.921Z,100304.05
2019-05-15T12:07:54.635Z,100305.33
2019-05-15T12:13:59.729Z,100288.48
2019-05-15T12:20:07.096Z,100289.50
2019-05-15T12:26:12.512Z,100287.45
2019-05-15T12:32:28.469Z,100270.33
2019-05-15T12:38:23.483Z,100268.03
2019-05-15T13:02:49.170Z,100264.26
2019-05-15T13:08:53.885Z,100256.16
2019-05-15T13:14:59.086Z,100242.97
2019-05-15T13:21:03.860Z,100236.28
2019-05-15T13:27:08.426Z,100230.80
2019-05-15T13:33:12.983Z,100220.86
2019-05-15T13:39:18.390Z,100214.53
2019-05-15T13:45:23.436Z,100210.66
2019-05-15T13:51:29.022Z,100198.41
2019-05-15T13:57:33.813Z,100195.07
2019-05-15T14:03:39.037Z,100185.86
2019-05-15T14:09:44.743Z,100174.34
2019-05-15T14:15:49.565Z,100169.36
2019-05-15T14:21:54.199Z,100164.56
2019-05-15T14:27:59.611Z,100158.99
2019-05-15T14:34:04.553Z,100159.92
2019-05-15T14:40:09.910Z,100157.38
2019-05-15T14:46:14.729Z,100149.52
2019-05-15T14:52:19.345Z,100153.50
2019-05-15T14:58:23.905Z,100136.39
2019-05-15T15:04:29.149Z,100125.91
2019-05-15T15:10:33.789Z,100122.50
2019-05-15T15:16:38.640Z,100116.73
2019-05-15T15:22:43.296Z,100115.91
2019-05-15T15:28:48.897Z,100112.84
2019-05-15T15:34:53.739Z,100112.50
2019-05-15T15:41:00.484Z,100107.65
2019-05-15T15:47:04.789Z,100102.27
2019-05-15T15:53:09.442Z,100098.51
2019-05-15T15:59:14.010Z,100099.97
2019-05-15T16:05:19.180Z,100085.78
2019-05-15T16:11:23.946Z,100077.87
2019-05-15T16:17:28.754Z,100076.69
2019-05-15T16:23:33.286Z,100077.15
2019-05-15T16:29:39.259Z,100070.73
2019-05-15T16:35:44.084Z,100071.69
2019-05-15T16:41:49.123Z,100064.96
2019-05-15T16:47:53.804Z,100059.62
2019-05-15T16:53:58.381Z,100063.38
2019-05-15T17:00:03.008Z,100050.91
2019-05-15T17:06:09.458Z,100049.08
2019-05-15T17:12:14.097Z,100048.84
2019-05-15T17:18:18.666Z,100055.19
2019-05-15T17:24:23.253Z,100051.78
2019-05-15T17:30:28.773Z,100048.14
2019-05-15T17:36:33.466Z,100046.58
2019-05-15T17:42:38.830Z,100045.08
2019-05-15T17:48:43.937Z,100042.48
2019-05-15T17:54:49.142Z,100038.28
2019-05-15T18:00:54.021Z,100034.14
2019-05-15T18:06:59.206Z,100036.45
2019-05-15T18:13:03.915Z,100036.59
2019-05-15T18:19:08.736Z,100044.51
2019-05-15T18:25:13.436Z,100034.73
2019-05-15T18:31:18.263Z,100034.81
2019-05-15T18:37:22.928Z,100031.25
2019-05-15T18:43:28.477Z,100031.28
2019-05-15T18:49:33.207Z,100032.23
2019-05-15T18:55:38.549Z,100036.59
2019-05-15T19:01:43.372Z,100044.70
2019-05-15T19:07:48.724Z,100043.48
2019-05-15T19:13:53.523Z,100039.42
2019-05-15T19:19:58.754Z,100039.21
2019-05-15T19:26:03.485Z,100041.94
2019-05-15T19:32:10.988Z,100048.42
2019-05-15T19:38:14.530Z,100042.91
2019-05-15T19:44:19.241Z,100048.04
2019-05-15T19:50:23.946Z,100041.94
2019-05-15T19:56:28.646Z,100043.01
2019-05-15T20:02:33.207Z,100042.52
2019-05-15T20:08:38.590Z,100033.77
2019-05-15T20:14:43.311Z,100040.17
2019-05-15T20:20:47.926Z,100035.55
2019-05-15T20:26:52.492Z,100028.16
2019-05-15T20:32:58.555Z,100036.20
2019-05-15T20:39:03.535Z,100038.38
2019-05-15T20:45:12.341Z,100028.88
2019-05-15T20:51:15.586Z,100032.05
2019-05-15T20:57:20.319Z,100023.14
2019-05-15T21:03:25.015Z,100021.97
2019-05-15T21:09:30.691Z,100016.33
2019-05-15T21:15:35.567Z,100015.03
2019-05-15T21:21:40.130Z,100009.15
2019-05-15T21:27:44.713Z,100005.52
2019-05-15T21:33:50.416Z,100009.31
2019-05-15T21:39:55.118Z,100007.03
2019-05-15T21:46:01.227Z,100006.73
2019-05-15T21:52:05.827Z,99999.97
2019-05-15T21:58:10.451Z,99994.23
2019-05-15T22:04:15.203Z,99995.41
2019-05-15T22:10:19.904Z,99990.50
2019-05-15T22:16:24.874Z,99988.90
2019-05-15T22:22:29.413Z,99987.86
2019-05-15T22:28:34.044Z,99982.34
2019-05-15T22:34:38.587Z,99970.97
2019-05-15T22:40:43.686Z,99969.70
2019-05-15T22:46:48.733Z,99964.20
2019-05-15T22:52:53.592Z,99966.64
2019-05-15T22:58:58.475Z,99966.69
2019-05-15T23:05:03.337Z,99947.50
2019-05-15T23:11:09.473Z,99945.96
2019-05-15T23:17:14.372Z,99941.36
2019-05-15T23:23:18.914Z,99942.34
2019-05-15T23:29:25.386Z,99924.64
2019-05-15T23:35:37.936Z,99911.05
2019-05-15T23:41:36.127Z,99900.98
2019-05-15T23:47:40.810Z,99899.52
2019-05-15T23:53:45.342Z,99893.64
2019-05-15T23:59:49.892Z,99881.03
